Chad Pregracke — WDI9674 — position and weather

sailwx.info

Track history (hours):
 
Tides and Currents Weather Stations Pressure Air Temp Water Temp Dewpoint Dewpoint Depression Visibility Wind Speed Wind Dir Waves Ship Positions

Chad Pregracke

Owner: Marquette Transportation Company, LLC, Paducah, KY. More information available from US FCC via Universal Licensing System and Coast Guard Vessel Documentation Center.

Last reported at 2018-Jul-09 13:39 UTC. Time now 2018-Jul-20 23:53 UTC.
Position N 32°40' W 091°08'.
Warning: this ship's position is 11 days out of date.

Length 55 m; draft 3.4 m.

Type: Ship (hazmat cat B). MMSI: 367751050.

Date/timePositionNaut miles runAvg speedWind from/ knotsBaromVisibWave heightAir tempDewpointWater temp
2018-Jul-09 13:39N 32°40' W 091°08'1 4.5
2018-Jul-09 13:30N 32°40' W 091°08'3 4.4
2018-Jul-09 12:56N 32°37' W 091°09'2 4.7
2018-Jul-09 12:30N 32°35' W 091°08'2 4.8
2018-Jul-09 12:00N 32°34' W 091°06'2 4.5
2018-Jul-09 11:28N 32°31' W 091°06'2 5.0
2018-Jul-09 11:00N 32°29' W 091°07'2 4.5
2018-Jul-09 10:30N 32°27' W 091°05'2 4.7
2018-Jul-09 10:00N 32°26' W 091°03'2 4.5
2018-Jul-09 09:30N 32°25' W 091°00'2 4.0
2018-Jul-09 09:00N 32°23' W 090°60'2 3.9
2018-Jul-09 08:30N 32°21' W 090°59'3 4.9
2018-Jul-09 08:00N 32°21' W 090°57'2 4.3
2018-Jul-09 07:30N 32°20' W 090°54'2 3.6
2018-Jul-09 07:00N 32°18' W 090°55'2 4.0
2018-Jul-09 06:30N 32°17' W 090°57'2 4.5
2018-Jul-09 06:00N 32°15' W 090°58'2 4.8
2018-Jul-09 05:30N 32°13' W 090°59'2 4.3
2018-Jul-09 05:00N 32°11' W 090°60'2 4.4
2018-Jul-09 04:30N 32°09' W 091°00'2 4.1
2018-Jul-09 04:00N 32°07' W 091°02'2 4.5
2018-Jul-09 03:30N 32°08' W 091°04'2 4.0
2018-Jul-09 03:00N 32°07' W 091°07'3 4.8
2018-Jul-09 02:26N 32°05' W 091°04'2 4.7
2018-Jul-09 02:00N 32°03' W 091°03'3 5.2
2018-Jul-09 01:30N 32°01' W 091°05'6 4.4
2018-Jul-09 00:07N 31°58' W 091°11'0 4.3
2018-Jul-09 00:00N 31°57' W 091°11'  
2018-Jun-30 13:56N 30°58' W 091°40'3 6.9
2018-Jun-30 13:27N 31°00' W 091°38'4 8.1
2018-Jun-30 12:55N 31°03' W 091°34'4 8.5
2018-Jun-30 12:30N 31°06' W 091°36'3 7.0
2018-Jun-30 12:01N 31°09' W 091°36'34 6.9
2018-Jun-30 07:09N 31°41' W 091°24'1 8.6
2018-Jun-30 06:59N 31°43' W 091°24'6 9.1
2018-Jun-30 06:19N 31°48' W 091°21'3 9.1
2018-Jun-30 06:00N 31°51' W 091°20'4 8.4
2018-Jun-30 05:29N 31°52' W 091°15'6 9.0
2018-Jun-30 04:51N 31°57' W 091°12'3 8.2
2018-Jun-30 04:28N 31°59' W 091°09'4 8.6
2018-Jun-30 04:00N 32°00' W 091°05'5 8.5
2018-Jun-30 03:28N 32°05' W 091°04'3 6.7
2018-Jun-30 02:59N 32°08' W 091°06'4 8.5
2018-Jun-30 02:31N 32°07' W 091°01'5 9.3
2018-Jun-30 02:00N 32°12' W 090°59'5 9.3
2018-Jun-30 01:31N 32°16' W 090°58'5 9.1
2018-Jun-30 01:00N 32°19' W 090°54'3 5.4
2018-Jun-30 00:30N 32°21' W 090°57'3 6.6
2018-Jun-30 00:01N 32°22' W 091°00'3 6.9
2018-Jun-29 23:30N 32°26' W 091°01'4 8.9
2018-Jun-29 23:00N 32°28' W 091°06'4 8.2
2018-Jun-29 22:30N 32°32' W 091°06'4 8.5
2018-Jun-29 22:00N 32°36' W 091°08'4 7.6
2018-Jun-29 21:29N 32°40' W 091°08'  
Track history (hours):
 
Tides and Currents Weather Stations Pressure Air Temp Water Temp Dewpoint Dewpoint Depression Visibility Wind Speed Wind Dir Waves Ship Positions

Chad Pregracke

Owner: Marquette Transportation Company, LLC, Paducah, KY. More information available from US FCC via Universal Licensing System and Coast Guard Vessel Documentation Center.

Last reported at 2018-Jul-09 13:39 UTC. Time now 2018-Jul-20 23:53 UTC.
Position N 32°40' W 091°08'.
Warning: this ship's position is 11 days out of date.

Length 55 m; draft 3.4 m.

Type: Ship (hazmat cat B). MMSI: 367751050.

Date/timePositionNaut miles runAvg speedWind from/ knotsBaromVisibWave heightAir tempDewpointWater temp
2018-Jul-09 13:39N 32°40' W 091°08'1 4.5
2018-Jul-09 13:30N 32°40' W 091°08'3 4.4
2018-Jul-09 12:56N 32°37' W 091°09'2 4.7
2018-Jul-09 12:30N 32°35' W 091°08'2 4.8
2018-Jul-09 12:00N 32°34' W 091°06'2 4.5
2018-Jul-09 11:28N 32°31' W 091°06'2 5.0
2018-Jul-09 11:00N 32°29' W 091°07'2 4.5
2018-Jul-09 10:30N 32°27' W 091°05'2 4.7
2018-Jul-09 10:00N 32°26' W 091°03'2 4.5
2018-Jul-09 09:30N 32°25' W 091°00'2 4.0
2018-Jul-09 09:00N 32°23' W 090°60'2 3.9
2018-Jul-09 08:30N 32°21' W 090°59'3 4.9
2018-Jul-09 08:00N 32°21' W 090°57'2 4.3
2018-Jul-09 07:30N 32°20' W 090°54'2 3.6
2018-Jul-09 07:00N 32°18' W 090°55'2 4.0
2018-Jul-09 06:30N 32°17' W 090°57'2 4.5
2018-Jul-09 06:00N 32°15' W 090°58'2 4.8
2018-Jul-09 05:30N 32°13' W 090°59'2 4.3
2018-Jul-09 05:00N 32°11' W 090°60'2 4.4
2018-Jul-09 04:30N 32°09' W 091°00'2 4.1
2018-Jul-09 04:00N 32°07' W 091°02'2 4.5
2018-Jul-09 03:30N 32°08' W 091°04'2 4.0
2018-Jul-09 03:00N 32°07' W 091°07'3 4.8
2018-Jul-09 02:26N 32°05' W 091°04'2 4.7
2018-Jul-09 02:00N 32°03' W 091°03'3 5.2
2018-Jul-09 01:30N 32°01' W 091°05'6 4.4
2018-Jul-09 00:07N 31°58' W 091°11'0 4.3
2018-Jul-09 00:00N 31°57' W 091°11'  
2018-Jun-30 13:56N 30°58' W 091°40'3 6.9
2018-Jun-30 13:27N 31°00' W 091°38'4 8.1
2018-Jun-30 12:55N 31°03' W 091°34'4 8.5
2018-Jun-30 12:30N 31°06' W 091°36'3 7.0
2018-Jun-30 12:01N 31°09' W 091°36'34 6.9
2018-Jun-30 07:09N 31°41' W 091°24'1 8.6
2018-Jun-30 06:59N 31°43' W 091°24'6 9.1
2018-Jun-30 06:19N 31°48' W 091°21'3 9.1
2018-Jun-30 06:00N 31°51' W 091°20'4 8.4
2018-Jun-30 05:29N 31°52' W 091°15'6 9.0
2018-Jun-30 04:51N 31°57' W 091°12'3 8.2
2018-Jun-30 04:28N 31°59' W 091°09'4 8.6
2018-Jun-30 04:00N 32°00' W 091°05'5 8.5
2018-Jun-30 03:28N 32°05' W 091°04'3 6.7
2018-Jun-30 02:59N 32°08' W 091°06'4 8.5
2018-Jun-30 02:31N 32°07' W 091°01'5 9.3
2018-Jun-30 02:00N 32°12' W 090°59'5 9.3
2018-Jun-30 01:31N 32°16' W 090°58'5 9.1
2018-Jun-30 01:00N 32°19' W 090°54'3 5.4
2018-Jun-30 00:30N 32°21' W 090°57'3 6.6
2018-Jun-30 00:01N 32°22' W 091°00'3 6.9
2018-Jun-29 23:30N 32°26' W 091°01'4 8.9
2018-Jun-29 23:00N 32°28' W 091°06'4 8.2
2018-Jun-29 22:30N 32°32' W 091°06'4 8.5
2018-Jun-29 22:00N 32°36' W 091°08'4 7.6
2018-Jun-29 21:29N 32°40' W 091°08'  

Dump ship's entire track history